createdAt,value
2023-02-18T00:04:01.579Z,10.58
2023-02-18T00:09:05.730Z,10.58
2023-02-18T00:14:10.020Z,10.58
2023-02-18T00:19:14.053Z,10.56
2023-02-18T00:24:18.214Z,10.56
2023-02-18T00:29:22.366Z,10.55
2023-02-18T00:34:26.527Z,10.53
2023-02-18T00:39:30.669Z,10.52
2023-02-18T00:44:34.871Z,10.48
2023-02-18T00:49:39.015Z,10.43
2023-02-18T00:54:43.177Z,10.42
2023-02-18T00:59:47.326Z,10.41
2023-02-18T01:04:51.564Z,10.40
2023-02-18T01:09:55.634Z,10.36
2023-02-18T01:14:59.845Z,10.34
2023-02-18T01:20:03.982Z,10.29
2023-02-18T01:25:08.154Z,10.24
2023-02-18T01:30:12.351Z,10.22
2023-02-18T01:35:16.515Z,10.19
2023-02-18T01:40:18.717Z,10.19
2023-02-18T01:45:22.889Z,10.18
2023-02-18T01:50:27.054Z,10.20
2023-02-18T01:55:29.343Z,10.23
2023-02-18T02:00:33.507Z,10.25
2023-02-18T02:05:37.650Z,10.26
2023-02-18T02:10:41.829Z,10.25
2023-02-18T02:15:45.959Z,10.26
2023-02-18T02:20:50.129Z,10.28
2023-02-18T02:25:54.316Z,10.27
2023-02-18T02:30:58.476Z,10.29
2023-02-18T02:36:02.613Z,10.31
2023-02-18T02:41:06.770Z,10.31
2023-02-18T02:46:11.553Z,10.33
2023-02-18T02:51:15.097Z,10.34
2023-02-18T02:56:19.246Z,10.33
2023-02-18T03:01:23.469Z,10.34
2023-02-18T03:06:27.590Z,10.35
2023-02-18T03:11:31.740Z,10.34
2023-02-18T03:16:34.077Z,10.33
2023-02-18T03:21:38.210Z,10.31
2023-02-18T03:26:42.325Z,10.28
2023-02-18T03:31:46.705Z,10.19
2023-02-18T03:36:50.648Z,10.12
2023-02-18T03:41:52.917Z,10.07
2023-02-18T03:46:57.083Z,10.06
2023-02-18T03:51:59.360Z,10.05
2023-02-18T03:57:03.588Z,10.06
2023-02-18T04:02:07.696Z,10.04
2023-02-18T04:07:11.842Z,10.04
2023-02-18T04:12:15.979Z,10.03
2023-02-18T04:17:20.142Z,10.05
2023-02-18T04:22:24.333Z,10.05
2023-02-18T04:27:28.514Z,10.02
2023-02-18T04:32:32.671Z,10.02
2023-02-18T04:37:36.809Z,10.01
2023-02-18T04:42:40.941Z,10.03
2023-02-18T04:47:45.134Z,10.04
2023-02-18T04:52:49.366Z,10.05
2023-02-18T04:57:53.481Z,10.02
2023-02-18T05:02:57.633Z,9.99
2023-02-18T05:08:01.766Z,9.94
2023-02-18T05:13:05.946Z,9.89
2023-02-18T05:18:10.117Z,9.86
2023-02-18T05:28:18.469Z,9.82
2023-02-18T05:33:22.585Z,9.80
2023-02-18T05:38:26.781Z,9.77
2023-02-18T05:43:29.019Z,9.77
2023-02-18T05:48:33.242Z,9.76
2023-02-18T05:53:35.458Z,9.74
2023-02-18T05:58:39.602Z,9.74
2023-02-18T06:03:43.771Z,9.75
2023-02-18T06:08:47.976Z,9.75
2023-02-18T06:13:52.160Z,9.77
2023-02-18T06:18:56.587Z,9.74
2023-02-18T06:24:00.427Z,9.72
2023-02-18T06:29:04.592Z,9.70
2023-02-18T06:34:08.784Z,9.67
2023-02-18T06:39:12.921Z,9.66
2023-02-18T06:44:17.090Z,9.65
2023-02-18T06:49:21.287Z,9.63
2023-02-18T06:54:25.418Z,9.65
2023-02-18T06:59:29.565Z,9.65
2023-02-18T07:04:33.712Z,9.63
2023-02-18T07:09:37.876Z,9.63
2023-02-18T07:14:42.028Z,9.64
2023-02-18T07:19:46.237Z,9.64
2023-02-18T07:24:50.355Z,9.63
2023-02-18T07:29:54.561Z,9.63
2023-02-18T07:34:58.678Z,9.59
2023-02-18T07:40:00.972Z,9.58
2023-02-18T07:45:05.150Z,9.54
2023-02-18T07:50:07.391Z,9.55
2023-02-18T07:55:11.566Z,9.58
2023-02-18T08:00:15.703Z,9.63
2023-02-18T08:05:19.905Z,9.68
2023-02-18T08:10:24.034Z,9.73
2023-02-18T08:15:28.213Z,9.74
2023-02-18T08:20:32.362Z,9.74
2023-02-18T08:25:36.506Z,9.82
2023-02-18T08:30:40.861Z,9.88
2023-02-18T08:35:44.876Z,9.93
2023-02-18T08:40:49.037Z,9.95
2023-02-18T08:45:53.241Z,9.88
2023-02-18T08:50:57.356Z,9.72
2023-02-18T08:56:01.483Z,9.66
2023-02-18T09:01:06.042Z,9.57
2023-02-18T09:06:09.850Z,9.51
2023-02-18T09:11:14.003Z,9.52
2023-02-18T09:16:18.254Z,9.48
2023-02-18T09:21:22.340Z,9.49
2023-02-18T09:26:26.534Z,9.46
2023-02-18T09:31:30.758Z,9.46
2023-02-18T09:36:32.905Z,9.41
2023-02-18T09:41:37.056Z,9.43
2023-02-18T09:46:41.216Z,9.40
2023-02-18T09:51:43.500Z,9.43
2023-02-18T09:56:47.665Z,9.41
2023-02-18T10:01:51.845Z,9.39
2023-02-18T10:06:56.028Z,9.37
2023-02-18T10:12:00.142Z,9.37
2023-02-18T10:17:04.323Z,9.41
2023-02-18T10:22:08.466Z,9.37
2023-02-18T10:27:12.654Z,9.34
2023-02-18T10:32:16.811Z,9.24
2023-02-18T10:37:20.938Z,9.20
2023-02-18T10:42:25.206Z,9.23
2023-02-18T10:47:29.285Z,9.25
2023-02-18T10:52:33.528Z,9.35
2023-02-18T10:57:37.586Z,9.33
2023-02-18T11:02:41.766Z,9.26
2023-02-18T11:07:45.935Z,9.19
2023-02-18T11:12:50.095Z,9.10
2023-02-18T11:17:54.241Z,9.10
2023-02-18T11:22:58.385Z,9.11
2023-02-18T11:28:02.566Z,9.09
2023-02-18T11:33:06.743Z,9.14
2023-02-18T11:38:08.994Z,9.14
2023-02-18T11:43:13.145Z,9.16
2023-02-18T11:48:15.443Z,9.23
2023-02-18T11:53:19.606Z,9.17
2023-02-18T11:58:23.751Z,9.11
2023-02-18T12:03:27.972Z,9.13
2023-02-18T12:08:32.090Z,9.15
2023-02-18T12:13:36.246Z,9.20
2023-02-18T12:18:42.652Z,9.24
2023-02-18T12:23:46.836Z,9.26
2023-02-18T12:28:48.989Z,9.24
2023-02-18T12:33:52.907Z,9.24
2023-02-18T12:38:57.067Z,9.23
2023-02-18T12:44:01.221Z,9.30
2023-02-18T12:49:05.354Z,9.34
2023-02-18T12:54:09.542Z,9.30
2023-02-18T12:59:13.738Z,9.25
2023-02-18T13:04:17.831Z,9.27
2023-02-18T13:09:22.014Z,9.32
2023-02-18T13:14:26.197Z,9.34
2023-02-18T13:19:30.368Z,9.37
2023-02-18T13:24:34.531Z,9.38
2023-02-18T13:29:38.686Z,9.38
2023-02-18T13:34:40.940Z,9.35
2023-02-18T13:39:45.112Z,9.39
2023-02-18T13:44:49.278Z,9.36
2023-02-18T13:49:53.409Z,9.39
2023-02-18T13:54:57.584Z,9.45
2023-02-18T14:00:01.740Z,9.44
2023-02-18T14:05:05.932Z,9.42
2023-02-18T14:10:10.058Z,9.44
2023-02-18T14:15:14.218Z,9.44
2023-02-18T14:20:18.400Z,9.42
2023-02-18T14:25:22.545Z,9.44
2023-02-18T14:30:26.741Z,9.45
2023-02-18T14:35:30.985Z,9.49
2023-02-18T14:40:35.066Z,9.51
2023-02-18T14:45:39.438Z,9.55
2023-02-18T14:50:43.355Z,9.56
2023-02-18T14:55:47.602Z,9.60
2023-02-18T15:00:51.676Z,9.63
2023-02-18T15:05:55.872Z,9.64
2023-02-18T15:11:00.003Z,9.66
2023-02-18T15:16:04.208Z,9.66
2023-02-18T15:21:06.677Z,9.69
2023-02-18T15:26:11.024Z,9.68
2023-02-18T15:31:15.229Z,9.68
2023-02-18T15:36:17.024Z,9.67
2023-02-18T15:41:21.191Z,9.64
2023-02-18T15:46:25.608Z,9.64
2023-02-18T15:51:29.519Z,9.64
2023-02-18T15:56:33.704Z,9.63
2023-02-18T16:01:37.907Z,9.65
2023-02-18T16:06:41.977Z,9.66
2023-02-18T16:11:46.198Z,9.65
2023-02-18T16:16:50.376Z,9.66
2023-02-18T16:21:54.496Z,9.66
2023-02-18T16:32:02.850Z,9.67
2023-02-18T16:37:06.979Z,9.68
2023-02-18T16:42:11.165Z,9.67
2023-02-18T16:47:15.320Z,9.67
2023-02-18T16:52:19.544Z,9.66
2023-02-18T16:57:23.618Z,9.64
2023-02-18T17:02:27.757Z,9.64
2023-02-18T17:07:31.962Z,9.60
2023-02-18T17:12:41.122Z,9.61
2023-02-18T17:17:40.272Z,9.63
2023-02-18T17:22:42.530Z,9.65
2023-02-18T17:27:48.070Z,9.65
2023-02-18T17:32:48.967Z,9.67
2023-02-18T17:37:53.113Z,9.70
2023-02-18T17:42:57.286Z,9.71
2023-02-18T17:48:01.431Z,9.72
2023-02-18T17:53:05.621Z,9.72
2023-02-18T17:58:09.773Z,9.72
2023-02-18T18:03:13.915Z,9.74
2023-02-18T18:08:18.107Z,9.74
2023-02-18T18:13:22.254Z,9.73
2023-02-18T18:18:26.431Z,9.70
2023-02-18T18:23:30.574Z,9.70
2023-02-18T18:28:37.257Z,9.69
2023-02-18T18:33:38.919Z,9.67
2023-02-18T18:38:43.049Z,9.66
2023-02-18T18:43:47.243Z,9.66
2023-02-18T18:48:51.379Z,9.68
2023-02-18T18:53:55.589Z,9.69
2023-02-18T18:58:59.746Z,9.67
2023-02-18T19:04:03.940Z,9.69
2023-02-18T19:09:10.650Z,9.70
2023-02-18T19:14:12.194Z,9.71
2023-02-18T19:19:14.482Z,9.73
2023-02-18T19:24:18.664Z,9.74
2023-02-18T19:29:20.900Z,9.77
2023-02-18T19:34:25.090Z,9.78
2023-02-18T19:39:29.234Z,9.77
2023-02-18T19:44:31.473Z,9.74
2023-02-18T19:49:35.677Z,9.73
2023-02-18T19:54:39.833Z,9.71
2023-02-18T19:59:44.038Z,9.71
2023-02-18T20:04:48.196Z,9.70
2023-02-18T20:09:52.310Z,9.68
2023-02-18T20:14:54.610Z,9.72
2023-02-18T20:19:59.035Z,9.75
2023-02-18T20:25:02.907Z,9.73
2023-02-18T20:30:07.138Z,9.74
2023-02-18T20:35:11.223Z,9.76
2023-02-18T20:40:15.413Z,9.76
2023-02-18T20:45:19.531Z,9.77
2023-02-18T20:50:23.723Z,9.76
2023-02-18T20:55:27.868Z,9.77
2023-02-18T21:00:32.026Z,9.80
2023-02-18T21:05:36.211Z,9.80
2023-02-18T21:10:40.368Z,9.80
2023-02-18T21:15:44.576Z,9.80
2023-02-18T21:20:48.673Z,9.81
2023-02-18T21:25:52.856Z,9.80
2023-02-18T21:30:55.119Z,9.78
2023-02-18T21:35:59.294Z,9.79
2023-02-18T21:41:01.574Z,9.77
2023-02-18T21:46:05.701Z,9.74
2023-02-18T21:51:10.249Z,9.71
2023-02-18T21:56:14.029Z,9.70
2023-02-18T22:01:18.299Z,9.69
2023-02-18T22:06:22.356Z,9.67
2023-02-18T22:11:26.534Z,9.65
2023-02-18T22:16:30.754Z,9.64
2023-02-18T22:21:34.882Z,9.61
2023-02-18T22:26:39.007Z,9.58
2023-02-18T22:31:43.250Z,9.58
2023-02-18T22:36:47.290Z,9.56
2023-02-18T22:41:51.448Z,9.55
2023-02-18T22:46:55.686Z,9.54
2023-02-18T22:51:59.795Z,9.54
2023-02-18T22:57:03.961Z,9.55
2023-02-18T23:02:08.132Z,9.56
2023-02-18T23:07:12.324Z,9.56
2023-02-18T23:12:16.458Z,9.58
2023-02-18T23:17:20.639Z,9.58
2023-02-18T23:22:24.761Z,9.59
2023-02-18T23:27:27.038Z,9.62
2023-02-18T23:32:31.209Z,9.63
2023-02-18T23:37:33.459Z,9.61
2023-02-18T23:42:37.756Z,9.59
2023-02-18T23:47:41.827Z,9.58
2023-02-18T23:52:45.947Z,9.56
2023-02-18T23:57:50.139Z,9.56
